TimeAKDT,TemperatureF,Dew PointF,Humidity,Sea Level PressureIn,VisibilityMPH,Wind Direction,Wind SpeedMPH,Gust SpeedMPH,PrecipitationIn,Events,Conditions,WindDirDegrees,DateUTC
12:53 AM,44.1,37.0,76,29.94,10.0,SSE,15.0,-,N/A,,Clear,160,2013-09-09 08:53:00
1:53 AM,43.0,37.0,80,29.94,10.0,SSE,16.1,-,N/A,,Clear,160,2013-09-09 09:53:00
2:53 AM,44.1,37.0,76,29.94,10.0,SSE,12.7,-,N/A,,Clear,160,2013-09-09 10:53:00
3:53 AM,44.1,37.0,76,29.94,10.0,South,12.7,-,N/A,,Clear,170,2013-09-09 11:53:00
4:53 AM,43.0,37.0,80,29.93,10.0,SSE,12.7,-,N/A,,Clear,160,2013-09-09 12:53:00
5:53 AM,44.1,37.9,79,29.92,10.0,SSE,13.8,-,N/A,,Clear,160,2013-09-09 13:53:00
6:53 AM,45.0,37.9,76,29.91,10.0,SSE,15.0,-,N/A,,Mostly Cloudy,160,2013-09-09 14:53:00
7:53 AM,45.0,39.0,80,29.92,10.0,South,13.8,-,N/A,,Overcast,170,2013-09-09 15:53:00
8:53 AM,46.9,37.9,71,29.92,10.0,SSE,16.1,-,N/A,,Overcast,160,2013-09-09 16:53:00
9:53 AM,46.9,39.0,74,29.92,10.0,SSE,13.8,-,N/A,,Overcast,160,2013-09-09 17:53:00
10:53 AM,50.0,39.0,66,29.91,10.0,SSE,15.0,-,N/A,,Mostly Cloudy,160,2013-09-09 18:53:00
11:53 AM,50.0,37.9,63,29.91,10.0,SSE,13.8,-,N/A,,Mostly Cloudy,160,2013-09-09 19:53:00
12:53 PM,57.0,39.0,51,29.89,10.0,SSE,15.0,23.0,N/A,,Clear,150,2013-09-09 20:53:00
1:53 PM,55.0,36.0,49,29.89,10.0,SSE,23.0,33.4,N/A,,Scattered Clouds,160,2013-09-09 21:53:00
2:53 PM,57.0,37.9,49,29.87,10.0,South,15.0,24.2,N/A,,Mostly Cloudy,170,2013-09-09 22:53:00
3:53 PM,54.0,37.9,55,29.87,10.0,South,13.8,-,N/A,,Partly Cloudy,170,2013-09-09 23:53:00
4:53 PM,55.0,39.0,55,29.85,10.0,SSE,13.8,21.9,N/A,,Clear,160,2013-09-10 00:53:00
5:53 PM,55.0,39.0,55,29.84,10.0,SSE,16.1,26.5,N/A,,Partly Cloudy,160,2013-09-10 01:53:00
6:53 PM,54.0,39.0,57,29.85,10.0,SSE,9.2,-,N/A,,Partly Cloudy,150,2013-09-10 02:53:00
7:53 PM,53.1,37.9,57,29.84,10.0,SSE,15.0,19.6,N/A,,Partly Cloudy,150,2013-09-10 03:53:00
8:53 PM,51.1,39.9,66,29.85,10.0,SE,6.9,-,0.00,Rain,Light Rain,140,2013-09-10 04:53:00
9:53 PM,50.0,39.0,66,29.84,10.0,SE,9.2,-,0.00,,Clear,140,2013-09-10 05:53:00
10:53 PM,48.9,37.9,66,29.83,10.0,ESE,11.5,20.7,N/A,,Clear,120,2013-09-10 06:53:00
11:53 PM,48.9,37.9,66,29.83,10.0,SE,9.2,-,N/A,,Mostly Cloudy,140,2013-09-10 07:53:00